sensor_id;sensor_type;location;lat;lon;timestamp;P1;durP1;ratioP1;P2;durP2;ratioP2
75787;SDS011;64406;50.024;14.492;2023-05-16T00:02:05;12.40;;;6.78;;
75787;SDS011;64406;50.024;14.492;2023-05-16T00:04:31;9.23;;;6.90;;
75787;SDS011;64406;50.024;14.492;2023-05-16T00:06:57;8.48;;;6.05;;
75787;SDS011;64406;50.024;14.492;2023-05-16T00:09:22;10.57;;;6.78;;
75787;SDS011;64406;50.024;14.492;2023-05-16T00:11:49;11.75;;;7.13;;
75787;SDS011;64406;50.024;14.492;2023-05-16T00:14:15;9.23;;;7.03;;
75787;SDS011;64406;50.024;14.492;2023-05-16T00:16:41;10.23;;;7.00;;
75787;SDS011;64406;50.024;14.492;2023-05-16T00:19:06;9.10;;;7.30;;
75787;SDS011;64406;50.024;14.492;2023-05-16T00:21:32;9.68;;;7.32;;
75787;SDS011;64406;50.024;14.492;2023-05-16T00:23:58;10.02;;;6.90;;
75787;SDS011;64406;50.024;14.492;2023-05-16T00:26:24;10.00;;;7.05;;
75787;SDS011;64406;50.024;14.492;2023-05-16T00:28:50;12.13;;;7.35;;
75787;SDS011;64406;50.024;14.492;2023-05-16T00:31:16;10.55;;;7.90;;
75787;SDS011;64406;50.024;14.492;2023-05-16T00:33:41;11.55;;;7.70;;
75787;SDS011;64406;50.024;14.492;2023-05-16T00:36:07;11.15;;;7.65;;
75787;SDS011;64406;50.024;14.492;2023-05-16T00:38:33;15.85;;;9.15;;
75787;SDS011;64406;50.024;14.492;2023-05-16T00:40:59;10.95;;;7.97;;
75787;SDS011;64406;50.024;14.492;2023-05-16T00:43:24;12.25;;;8.02;;
75787;SDS011;64406;50.024;14.492;2023-05-16T00:45:50;11.32;;;7.75;;
75787;SDS011;64406;50.024;14.492;2023-05-16T00:48:16;11.55;;;8.10;;
75787;SDS011;64406;50.024;14.492;2023-05-16T00:50:42;9.98;;;8.02;;
75787;SDS011;64406;50.024;14.492;2023-05-16T00:53:08;9.88;;;7.95;;
75787;SDS011;64406;50.024;14.492;2023-05-16T00:55:33;10.25;;;6.97;;
75787;SDS011;64406;50.024;14.492;2023-05-16T00:57:59;8.85;;;7.20;;
75787;SDS011;64406;50.024;14.492;2023-05-16T01:00:25;10.68;;;7.57;;
75787;SDS011;64406;50.024;14.492;2023-05-16T01:02:51;8.98;;;6.80;;
75787;SDS011;64406;50.024;14.492;2023-05-16T01:05:18;9.63;;;7.90;;
75787;SDS011;64406;50.024;14.492;2023-05-16T01:07:44;9.98;;;7.22;;
75787;SDS011;64406;50.024;14.492;2023-05-16T01:10:10;10.43;;;7.20;;
75787;SDS011;64406;50.024;14.492;2023-05-16T01:15:31;8.93;;;7.03;;
75787;SDS011;64406;50.024;14.492;2023-05-16T01:18:17;12.23;;;7.40;;
75787;SDS011;64406;50.024;14.492;2023-05-16T01:20:52;11.68;;;8.23;;
75787;SDS011;64406;50.024;14.492;2023-05-16T01:28:44;9.70;;;7.45;;
75787;SDS011;64406;50.024;14.492;2023-05-16T01:31:11;9.07;;;7.03;;
75787;SDS011;64406;50.024;14.492;2023-05-16T01:33:37;10.18;;;8.13;;
75787;SDS011;64406;50.024;14.492;2023-05-16T01:38:44;10.10;;;8.27;;
75787;SDS011;64406;50.024;14.492;2023-05-16T01:44:01;12.98;;;7.93;;
75787;SDS011;64406;50.024;14.492;2023-05-16T01:46:33;9.85;;;7.65;;
75787;SDS011;64406;50.024;14.492;2023-05-16T01:49:14;12.48;;;8.02;;
75787;SDS011;64406;50.024;14.492;2023-05-16T01:54:31;9.57;;;8.50;;
75787;SDS011;64406;50.024;14.492;2023-05-16T01:56:57;9.95;;;7.82;;
75787;SDS011;64406;50.024;14.492;2023-05-16T01:59:25;10.57;;;8.88;;
75787;SDS011;64406;50.024;14.492;2023-05-16T02:01:52;12.35;;;8.05;;
75787;SDS011;64406;50.024;14.492;2023-05-16T02:04:18;11.57;;;8.70;;
75787;SDS011;64406;50.024;14.492;2023-05-16T02:06:44;12.00;;;8.95;;
75787;SDS011;64406;50.024;14.492;2023-05-16T02:09:10;13.10;;;9.25;;
75787;SDS011;64406;50.024;14.492;2023-05-16T02:11:36;13.57;;;9.93;;
75787;SDS011;64406;50.024;14.492;2023-05-16T02:14:01;13.93;;;10.00;;
75787;SDS011;64406;50.024;14.492;2023-05-16T02:16:28;11.75;;;9.02;;
75787;SDS011;64406;50.024;14.492;2023-05-16T02:18:55;12.20;;;8.88;;
75787;SDS011;64406;50.024;14.492;2023-05-16T02:21:21;14.68;;;10.40;;
75787;SDS011;64406;50.024;14.492;2023-05-16T02:23:46;13.75;;;10.05;;
75787;SDS011;64406;50.024;14.492;2023-05-16T02:26:12;13.57;;;10.48;;
75787;SDS011;64406;50.024;14.492;2023-05-16T02:28:38;13.18;;;10.52;;
75787;SDS011;64406;50.024;14.492;2023-05-16T02:31:03;13.73;;;10.27;;
75787;SDS011;64406;50.024;14.492;2023-05-16T02:33:29;13.90;;;9.93;;
75787;SDS011;64406;50.024;14.492;2023-05-16T02:35:55;14.23;;;9.65;;
75787;SDS011;64406;50.024;14.492;2023-05-16T02:38:20;12.75;;;9.40;;
75787;SDS011;64406;50.024;14.492;2023-05-16T02:40:47;12.38;;;10.00;;
75787;SDS011;64406;50.024;14.492;2023-05-16T02:43:12;13.38;;;9.73;;
75787;SDS011;64406;50.024;14.492;2023-05-16T02:45:38;10.85;;;7.80;;
75787;SDS011;64406;50.024;14.492;2023-05-16T02:48:05;12.82;;;9.38;;
75787;SDS011;64406;50.024;14.492;2023-05-16T02:50:31;15.70;;;9.13;;
75787;SDS011;64406;50.024;14.492;2023-05-16T02:52:57;13.68;;;9.32;;
75787;SDS011;64406;50.024;14.492;2023-05-16T02:55:24;14.85;;;9.07;;
75787;SDS011;64406;50.024;14.492;2023-05-16T02:57:50;11.55;;;8.75;;
75787;SDS011;64406;50.024;14.492;2023-05-16T03:00:16;11.80;;;8.82;;
75787;SDS011;64406;50.024;14.492;2023-05-16T03:02:42;12.13;;;9.55;;
75787;SDS011;64406;50.024;14.492;2023-05-16T03:05:09;16.90;;;8.73;;
75787;SDS011;64406;50.024;14.492;2023-05-16T03:07:35;12.02;;;9.32;;
75787;SDS011;64406;50.024;14.492;2023-05-16T03:10:02;10.10;;;8.40;;
75787;SDS011;64406;50.024;14.492;2023-05-16T03:12:28;16.13;;;10.50;;
75787;SDS011;64406;50.024;14.492;2023-05-16T03:14:54;13.27;;;9.07;;
75787;SDS011;64406;50.024;14.492;2023-05-16T03:17:19;12.73;;;8.48;;
75787;SDS011;64406;50.024;14.492;2023-05-16T03:19:45;11.50;;;9.10;;
75787;SDS011;64406;50.024;14.492;2023-05-16T03:22:11;11.75;;;8.52;;
75787;SDS011;64406;50.024;14.492;2023-05-16T03:24:37;12.98;;;8.82;;
75787;SDS011;64406;50.024;14.492;2023-05-16T03:27:03;12.13;;;9.23;;
75787;SDS011;64406;50.024;14.492;2023-05-16T03:29:29;12.50;;;9.70;;
75787;SDS011;64406;50.024;14.492;2023-05-16T03:31:55;13.55;;;9.55;;
75787;SDS011;64406;50.024;14.492;2023-05-16T03:34:21;12.07;;;10.20;;
75787;SDS011;64406;50.024;14.492;2023-05-16T03:36:47;14.15;;;10.27;;
75787;SDS011;64406;50.024;14.492;2023-05-16T03:39:14;14.75;;;10.40;;
75787;SDS011;64406;50.024;14.492;2023-05-16T03:41:40;12.07;;;9.80;;
75787;SDS011;64406;50.024;14.492;2023-05-16T03:44:06;14.13;;;9.45;;
75787;SDS011;64406;50.024;14.492;2023-05-16T03:46:32;12.20;;;8.82;;
75787;SDS011;64406;50.024;14.492;2023-05-16T03:48:58;13.43;;;9.32;;
75787;SDS011;64406;50.024;14.492;2023-05-16T03:51:23;11.27;;;8.90;;
75787;SDS011;64406;50.024;14.492;2023-05-16T03:53:49;11.27;;;8.38;;
75787;SDS011;64406;50.024;14.492;2023-05-16T03:56:14;11.63;;;8.02;;
75787;SDS011;64406;50.024;14.492;2023-05-16T03:58:40;11.65;;;8.80;;
75787;SDS011;64406;50.024;14.492;2023-05-16T04:01:06;14.82;;;8.57;;
75787;SDS011;64406;50.024;14.492;2023-05-16T04:03:32;12.93;;;9.07;;
75787;SDS011;64406;50.024;14.492;2023-05-16T04:05:58;10.23;;;8.15;;
75787;SDS011;64406;50.024;14.492;2023-05-16T04:08:24;11.10;;;8.30;;
75787;SDS011;64406;50.024;14.492;2023-05-16T04:10:50;13.40;;;8.55;;
75787;SDS011;64406;50.024;14.492;2023-05-16T04:13:16;12.55;;;8.68;;
75787;SDS011;64406;50.024;14.492;2023-05-16T04:15:41;10.55;;;8.05;;
75787;SDS011;64406;50.024;14.492;2023-05-16T04:18:08;12.77;;;9.38;;
75787;SDS011;64406;50.024;14.492;2023-05-16T04:20:34;11.18;;;8.90;;
75787;SDS011;64406;50.024;14.492;2023-05-16T04:23:01;15.35;;;8.88;;
75787;SDS011;64406;50.024;14.492;2023-05-16T04:25:26;11.52;;;8.77;;
75787;SDS011;64406;50.024;14.492;2023-05-16T04:27:52;12.05;;;9.27;;
75787;SDS011;64406;50.024;14.492;2023-05-16T04:30:18;10.50;;;8.27;;
75787;SDS011;64406;50.024;14.492;2023-05-16T04:32:44;11.77;;;7.85;;
75787;SDS011;64406;50.024;14.492;2023-05-16T04:35:09;11.85;;;7.80;;
75787;SDS011;64406;50.024;14.492;2023-05-16T04:37:35;12.73;;;9.32;;
75787;SDS011;64406;50.024;14.492;2023-05-16T04:40:02;11.68;;;8.85;;
75787;SDS011;64406;50.024;14.492;2023-05-16T04:42:28;8.70;;;7.20;;
75787;SDS011;64406;50.024;14.492;2023-05-16T04:44:53;10.60;;;8.07;;
75787;SDS011;64406;50.024;14.492;2023-05-16T04:47:20;12.55;;;9.05;;
75787;SDS011;64406;50.024;14.492;2023-05-16T04:49:46;11.77;;;8.13;;
75787;SDS011;64406;50.024;14.492;2023-05-16T04:52:11;12.07;;;8.02;;
75787;SDS011;64406;50.024;14.492;2023-05-16T04:54:37;11.68;;;8.35;;
75787;SDS011;64406;50.024;14.492;2023-05-16T04:57:04;9.95;;;7.78;;
75787;SDS011;64406;50.024;14.492;2023-05-16T04:59:30;14.20;;;8.77;;
75787;SDS011;64406;50.024;14.492;2023-05-16T05:01:56;10.93;;;8.50;;
75787;SDS011;64406;50.024;14.492;2023-05-16T05:04:21;15.52;;;9.20;;
75787;SDS011;64406;50.024;14.492;2023-05-16T05:06:47;11.82;;;8.80;;
75787;SDS011;64406;50.024;14.492;2023-05-16T05:09:13;12.10;;;8.40;;
75787;SDS011;64406;50.024;14.492;2023-05-16T05:11:39;11.77;;;8.43;;
75787;SDS011;64406;50.024;14.492;2023-05-16T05:14:04;12.25;;;8.05;;
75787;SDS011;64406;50.024;14.492;2023-05-16T05:16:30;10.05;;;7.63;;
75787;SDS011;64406;50.024;14.492;2023-05-16T05:18:57;9.82;;;7.75;;
75787;SDS011;64406;50.024;14.492;2023-05-16T05:21:23;11.07;;;7.97;;
75787;SDS011;64406;50.024;14.492;2023-05-16T05:23:49;11.18;;;7.72;;
75787;SDS011;64406;50.024;14.492;2023-05-16T05:26:15;11.27;;;7.65;;
75787;SDS011;64406;50.024;14.492;2023-05-16T05:28:41;10.95;;;7.47;;
75787;SDS011;64406;50.024;14.492;2023-05-16T05:31:07;10.13;;;7.97;;
75787;SDS011;64406;50.024;14.492;2023-05-16T05:33:33;12.20;;;7.88;;
75787;SDS011;64406;50.024;14.492;2023-05-16T05:35:59;10.30;;;8.48;;
75787;SDS011;64406;50.024;14.492;2023-05-16T05:38:24;9.95;;;7.95;;
75787;SDS011;64406;50.024;14.492;2023-05-16T05:40:50;12.77;;;8.52;;
75787;SDS011;64406;50.024;14.492;2023-05-16T05:43:16;17.35;;;8.45;;
75787;SDS011;64406;50.024;14.492;2023-05-16T05:45:42;11.95;;;8.13;;
75787;SDS011;64406;50.024;14.492;2023-05-16T05:48:09;10.50;;;8.73;;
75787;SDS011;64406;50.024;14.492;2023-05-16T05:50:35;13.68;;;8.90;;
75787;SDS011;64406;50.024;14.492;2023-05-16T05:53:02;12.18;;;9.60;;
75787;SDS011;64406;50.024;14.492;2023-05-16T05:55:27;13.90;;;8.80;;
75787;SDS011;64406;50.024;14.492;2023-05-16T05:57:53;14.65;;;9.25;;
75787;SDS011;64406;50.024;14.492;2023-05-16T06:00:19;13.75;;;9.77;;
75787;SDS011;64406;50.024;14.492;2023-05-16T06:02:45;11.68;;;9.20;;
75787;SDS011;64406;50.024;14.492;2023-05-16T06:05:11;10.93;;;8.90;;
75787;SDS011;64406;50.024;14.492;2023-05-16T06:07:37;11.73;;;9.05;;
75787;SDS011;64406;50.024;14.492;2023-05-16T06:10:03;10.20;;;9.13;;
75787;SDS011;64406;50.024;14.492;2023-05-16T06:12:29;11.15;;;9.20;;
75787;SDS011;64406;50.024;14.492;2023-05-16T06:14:55;13.73;;;9.40;;
75787;SDS011;64406;50.024;14.492;2023-05-16T06:17:21;14.18;;;8.95;;
75787;SDS011;64406;50.024;14.492;2023-05-16T06:19:47;15.20;;;9.82;;
75787;SDS011;64406;50.024;14.492;2023-05-16T06:22:12;11.40;;;9.05;;
75787;SDS011;64406;50.024;14.492;2023-05-16T06:24:39;14.23;;;9.48;;
75787;SDS011;64406;50.024;14.492;2023-05-16T06:27:05;16.80;;;9.27;;
75787;SDS011;64406;50.024;14.492;2023-05-16T06:29:31;11.57;;;9.30;;
75787;SDS011;64406;50.024;14.492;2023-05-16T06:31:57;15.48;;;9.18;;
75787;SDS011;64406;50.024;14.492;2023-05-16T06:34:22;11.40;;;9.35;;
75787;SDS011;64406;50.024;14.492;2023-05-16T06:36:52;14.20;;;9.65;;
75787;SDS011;64406;50.024;14.492;2023-05-16T06:39:18;13.18;;;9.52;;
75787;SDS011;64406;50.024;14.492;2023-05-16T06:41:44;12.48;;;9.38;;
75787;SDS011;64406;50.024;14.492;2023-05-16T06:44:10;13.15;;;9.35;;
75787;SDS011;64406;50.024;14.492;2023-05-16T06:46:35;11.70;;;8.55;;
75787;SDS011;64406;50.024;14.492;2023-05-16T06:49:02;11.60;;;8.90;;
75787;SDS011;64406;50.024;14.492;2023-05-16T06:51:29;10.13;;;8.38;;
75787;SDS011;64406;50.024;14.492;2023-05-16T06:53:55;10.20;;;8.50;;
75787;SDS011;64406;50.024;14.492;2023-05-16T06:56:21;12.73;;;8.43;;
75787;SDS011;64406;50.024;14.492;2023-05-16T06:58:48;8.70;;;7.57;;
75787;SDS011;64406;50.024;14.492;2023-05-16T07:01:14;12.32;;;8.93;;
75787;SDS011;64406;50.024;14.492;2023-05-16T07:03:40;14.48;;;8.70;;
75787;SDS011;64406;50.024;14.492;2023-05-16T07:06:06;11.48;;;8.73;;
75787;SDS011;64406;50.024;14.492;2023-05-16T07:08:32;11.50;;;9.65;;
75787;SDS011;64406;50.024;14.492;2023-05-16T07:11:00;11.85;;;7.88;;
75787;SDS011;64406;50.024;14.492;2023-05-16T07:13:26;10.57;;;8.23;;
75787;SDS011;64406;50.024;14.492;2023-05-16T07:15:51;13.60;;;8.48;;
75787;SDS011;64406;50.024;14.492;2023-05-16T07:18:18;12.27;;;9.00;;
75787;SDS011;64406;50.024;14.492;2023-05-16T07:20:44;9.35;;;8.07;;
75787;SDS011;64406;50.024;14.492;2023-05-16T07:23:10;13.18;;;9.07;;
75787;SDS011;64406;50.024;14.492;2023-05-16T07:25:36;11.90;;;8.35;;
75787;SDS011;64406;50.024;14.492;2023-05-16T07:28:02;12.98;;;8.80;;
75787;SDS011;64406;50.024;14.492;2023-05-16T07:30:27;16.27;;;8.80;;
75787;SDS011;64406;50.024;14.492;2023-05-16T07:32:54;12.50;;;8.15;;
75787;SDS011;64406;50.024;14.492;2023-05-16T07:35:19;10.60;;;9.00;;
75787;SDS011;64406;50.024;14.492;2023-05-16T07:37:45;10.15;;;8.45;;
75787;SDS011;64406;50.024;14.492;2023-05-16T07:40:11;15.10;;;9.90;;
75787;SDS011;64406;50.024;14.492;2023-05-16T07:42:37;12.20;;;8.70;;
75787;SDS011;64406;50.024;14.492;2023-05-16T07:45:03;14.05;;;9.38;;
75787;SDS011;64406;50.024;14.492;2023-05-16T07:47:31;12.45;;;9.07;;
75787;SDS011;64406;50.024;14.492;2023-05-16T07:49:57;11.50;;;9.02;;
75787;SDS011;64406;50.024;14.492;2023-05-16T07:52:23;13.40;;;10.02;;
75787;SDS011;64406;50.024;14.492;2023-05-16T07:54:48;10.27;;;9.18;;
75787;SDS011;64406;50.024;14.492;2023-05-16T07:57:15;11.88;;;9.07;;
75787;SDS011;64406;50.024;14.492;2023-05-16T07:59:41;11.95;;;9.20;;
75787;SDS011;64406;50.024;14.492;2023-05-16T08:02:07;10.27;;;8.88;;
75787;SDS011;64406;50.024;14.492;2023-05-16T08:04:33;12.18;;;10.00;;
75787;SDS011;64406;50.024;14.492;2023-05-16T08:06:59;12.25;;;9.57;;
75787;SDS011;64406;50.024;14.492;2023-05-16T08:09:24;13.48;;;9.60;;
75787;SDS011;64406;50.024;14.492;2023-05-16T08:11:50;13.20;;;9.40;;
75787;SDS011;64406;50.024;14.492;2023-05-16T08:14:16;13.13;;;9.07;;
75787;SDS011;64406;50.024;14.492;2023-05-16T08:16:43;12.27;;;9.98;;
75787;SDS011;64406;50.024;14.492;2023-05-16T08:19:08;11.73;;;8.95;;
75787;SDS011;64406;50.024;14.492;2023-05-16T08:21:34;14.45;;;10.30;;
75787;SDS011;64406;50.024;14.492;2023-05-16T08:24:00;11.35;;;9.70;;
75787;SDS011;64406;50.024;14.492;2023-05-16T08:26:26;14.38;;;9.68;;
75787;SDS011;64406;50.024;14.492;2023-05-16T08:28:51;11.98;;;9.65;;
75787;SDS011;64406;50.024;14.492;2023-05-16T08:31:17;11.65;;;9.80;;
75787;SDS011;64406;50.024;14.492;2023-05-16T08:33:43;12.50;;;9.75;;
75787;SDS011;64406;50.024;14.492;2023-05-16T08:36:09;14.02;;;9.82;;
75787;SDS011;64406;50.024;14.492;2023-05-16T08:38:34;12.88;;;10.13;;
75787;SDS011;64406;50.024;14.492;2023-05-16T08:41:00;11.15;;;9.38;;
75787;SDS011;64406;50.024;14.492;2023-05-16T08:43:26;12.32;;;9.73;;
75787;SDS011;64406;50.024;14.492;2023-05-16T08:45:52;14.43;;;10.85;;
75787;SDS011;64406;50.024;14.492;2023-05-16T08:48:19;12.52;;;10.25;;
75787;SDS011;64406;50.024;14.492;2023-05-16T08:50:48;13.60;;;9.10;;
75787;SDS011;64406;50.024;14.492;2023-05-16T08:53:16;11.38;;;10.05;;
75787;SDS011;64406;50.024;14.492;2023-05-16T08:55:47;13.75;;;10.35;;
75787;SDS011;64406;50.024;14.492;2023-05-16T08:58:13;13.60;;;11.50;;
75787;SDS011;64406;50.024;14.492;2023-05-16T09:00:40;12.95;;;10.57;;
75787;SDS011;64406;50.024;14.492;2023-05-16T09:03:05;12.43;;;10.85;;
75787;SDS011;64406;50.024;14.492;2023-05-16T09:05:31;15.23;;;10.73;;
75787;SDS011;64406;50.024;14.492;2023-05-16T09:07:57;14.30;;;10.32;;
75787;SDS011;64406;50.024;14.492;2023-05-16T09:10:24;13.18;;;10.52;;
75787;SDS011;64406;50.024;14.492;2023-05-16T09:12:50;14.65;;;11.70;;
75787;SDS011;64406;50.024;14.492;2023-05-16T09:15:17;13.32;;;10.07;;
75787;SDS011;64406;50.024;14.492;2023-05-16T09:17:45;12.23;;;9.57;;
75787;SDS011;64406;50.024;14.492;2023-05-16T09:20:12;12.23;;;10.05;;
75787;SDS011;64406;50.024;14.492;2023-05-16T09:23:16;15.27;;;11.27;;
75787;SDS011;64406;50.024;14.492;2023-05-16T09:25:34;12.00;;;10.00;;
75787;SDS011;64406;50.024;14.492;2023-05-16T09:28:01;15.18;;;11.98;;
75787;SDS011;64406;50.024;14.492;2023-05-16T09:30:33;14.75;;;12.07;;
75787;SDS011;64406;50.024;14.492;2023-05-16T09:32:59;14.07;;;10.65;;
75787;SDS011;64406;50.024;14.492;2023-05-16T09:35:25;13.65;;;11.85;;
75787;SDS011;64406;50.024;14.492;2023-05-16T09:37:51;15.18;;;11.35;;
75787;SDS011;64406;50.024;14.492;2023-05-16T09:40:23;13.73;;;10.40;;
75787;SDS011;64406;50.024;14.492;2023-05-16T09:43:05;15.52;;;10.50;;
75787;SDS011;64406;50.024;14.492;2023-05-16T09:45:33;14.15;;;12.05;;
75787;SDS011;64406;50.024;14.492;2023-05-16T09:48:01;12.95;;;11.48;;
75787;SDS011;64406;50.024;14.492;2023-05-16T09:50:31;11.93;;;10.65;;
75787;SDS011;64406;50.024;14.492;2023-05-16T09:52:57;14.25;;;11.13;;
75787;SDS011;64406;50.024;14.492;2023-05-16T09:55:23;12.23;;;10.80;;
75787;SDS011;64406;50.024;14.492;2023-05-16T09:57:49;12.73;;;9.63;;
75787;SDS011;64406;50.024;14.492;2023-05-16T10:00:15;11.32;;;10.05;;
75787;SDS011;64406;50.024;14.492;2023-05-16T10:02:41;18.15;;;10.55;;
75787;SDS011;64406;50.024;14.492;2023-05-16T10:05:08;14.02;;;10.75;;
75787;SDS011;64406;50.024;14.492;2023-05-16T10:07:34;11.73;;;10.52;;
75787;SDS011;64406;50.024;14.492;2023-05-16T10:10:06;12.35;;;11.15;;
75787;SDS011;64406;50.024;14.492;2023-05-16T10:12:35;13.55;;;10.02;;
75787;SDS011;64406;50.024;14.492;2023-05-16T10:15:03;11.23;;;9.77;;
75787;SDS011;64406;50.024;14.492;2023-05-16T10:17:34;11.35;;;10.20;;
75787;SDS011;64406;50.024;14.492;2023-05-16T10:20:04;13.25;;;10.63;;
75787;SDS011;64406;50.024;14.492;2023-05-16T10:22:35;14.05;;;11.30;;
75787;SDS011;64406;50.024;14.492;2023-05-16T10:25:08;14.55;;;10.65;;
75787;SDS011;64406;50.024;14.492;2023-05-16T10:27:42;11.95;;;10.18;;
75787;SDS011;64406;50.024;14.492;2023-05-16T10:30:09;15.75;;;12.32;;
75787;SDS011;64406;50.024;14.492;2023-05-16T10:32:35;12.55;;;11.25;;
75787;SDS011;64406;50.024;14.492;2023-05-16T10:35:02;12.02;;;10.82;;
75787;SDS011;64406;50.024;14.492;2023-05-16T10:37:34;11.63;;;10.52;;
75787;SDS011;64406;50.024;14.492;2023-05-16T10:40:01;13.82;;;11.80;;
75787;SDS011;64406;50.024;14.492;2023-05-16T10:42:33;14.10;;;11.57;;
75787;SDS011;64406;50.024;14.492;2023-05-16T10:45:14;13.82;;;10.95;;
75787;SDS011;64406;50.024;14.492;2023-05-16T10:47:49;15.75;;;11.13;;
75787;SDS011;64406;50.024;14.492;2023-05-16T10:58:40;13.15;;;11.50;;
75787;SDS011;64406;50.024;14.492;2023-05-16T11:06:24;16.05;;;11.90;;
75787;SDS011;64406;50.024;14.492;2023-05-16T11:11:38;15.00;;;11.55;;
75787;SDS011;64406;50.024;14.492;2023-05-16T11:14:07;17.40;;;11.98;;
75787;SDS011;64406;50.024;14.492;2023-05-16T11:16:34;14.60;;;12.77;;
75787;SDS011;64406;50.024;14.492;2023-05-16T11:19:04;15.75;;;12.07;;
75787;SDS011;64406;50.024;14.492;2023-05-16T11:24:31;16.48;;;12.68;;
75787;SDS011;64406;50.024;14.492;2023-05-16T11:26:59;16.75;;;12.48;;
75787;SDS011;64406;50.024;14.492;2023-05-16T11:29:32;15.93;;;12.40;;
75787;SDS011;64406;50.024;14.492;2023-05-16T11:32:01;17.85;;;12.18;;
75787;SDS011;64406;50.024;14.492;2023-05-16T11:34:28;13.98;;;11.90;;
75787;SDS011;64406;50.024;14.492;2023-05-16T11:36:56;13.88;;;12.52;;
75787;SDS011;64406;50.024;14.492;2023-05-16T11:39:24;15.13;;;12.13;;
75787;SDS011;64406;50.024;14.492;2023-05-16T11:41:50;18.30;;;11.57;;
75787;SDS011;64406;50.024;14.492;2023-05-16T11:44:17;16.00;;;12.90;;
75787;SDS011;64406;50.024;14.492;2023-05-16T11:46:43;14.30;;;11.23;;
75787;SDS011;64406;50.024;14.492;2023-05-16T11:49:10;16.58;;;12.25;;
75787;SDS011;64406;50.024;14.492;2023-05-16T11:51:40;15.50;;;12.32;;
75787;SDS011;64406;50.024;14.492;2023-05-16T11:54:10;16.92;;;13.40;;
75787;SDS011;64406;50.024;14.492;2023-05-16T11:56:38;16.17;;;13.05;;
75787;SDS011;64406;50.024;14.492;2023-05-16T11:59:07;15.75;;;12.52;;
75787;SDS011;64406;50.024;14.492;2023-05-16T12:01:35;16.60;;;12.73;;
75787;SDS011;64406;50.024;14.492;2023-05-16T12:04:02;19.38;;;12.77;;
75787;SDS011;64406;50.024;14.492;2023-05-16T12:06:37;15.77;;;11.93;;
75787;SDS011;64406;50.024;14.492;2023-05-16T12:09:10;19.75;;;12.70;;
75787;SDS011;64406;50.024;14.492;2023-05-16T12:11:38;14.98;;;11.48;;
75787;SDS011;64406;50.024;14.492;2023-05-16T12:14:05;14.65;;;11.27;;
75787;SDS011;64406;50.024;14.492;2023-05-16T12:16:32;13.75;;;10.63;;
75787;SDS011;64406;50.024;14.492;2023-05-16T12:19:01;15.18;;;12.02;;
75787;SDS011;64406;50.024;14.492;2023-05-16T12:21:29;18.02;;;12.27;;
75787;SDS011;64406;50.024;14.492;2023-05-16T12:23:56;18.20;;;13.65;;
75787;SDS011;64406;50.024;14.492;2023-05-16T12:26:30;17.60;;;13.10;;
75787;SDS011;64406;50.024;14.492;2023-05-16T12:28:57;16.13;;;12.18;;
75787;SDS011;64406;50.024;14.492;2023-05-16T12:31:28;18.20;;;12.23;;
75787;SDS011;64406;50.024;14.492;2023-05-16T12:33:55;15.75;;;12.35;;
75787;SDS011;64406;50.024;14.492;2023-05-16T12:36:22;19.42;;;13.77;;
75787;SDS011;64406;50.024;14.492;2023-05-16T12:38:48;22.08;;;14.27;;
75787;SDS011;64406;50.024;14.492;2023-05-16T12:41:17;18.08;;;14.45;;
75787;SDS011;64406;50.024;14.492;2023-05-16T12:43:46;19.35;;;14.18;;
75787;SDS011;64406;50.024;14.492;2023-05-16T12:46:12;21.00;;;14.18;;
75787;SDS011;64406;50.024;14.492;2023-05-16T12:48:38;20.13;;;13.65;;
75787;SDS011;64406;50.024;14.492;2023-05-16T12:51:12;25.98;;;15.15;;
75787;SDS011;64406;50.024;14.492;2023-05-16T12:53:40;19.63;;;13.77;;
75787;SDS011;64406;50.024;14.492;2023-05-16T12:56:11;16.88;;;12.15;;
75787;SDS011;64406;50.024;14.492;2023-05-16T12:58:38;15.57;;;11.15;;
75787;SDS011;64406;50.024;14.492;2023-05-16T13:01:04;14.05;;;10.35;;
75787;SDS011;64406;50.024;14.492;2023-05-16T13:03:30;16.45;;;10.63;;
75787;SDS011;64406;50.024;14.492;2023-05-16T13:05:57;19.65;;;12.45;;
75787;SDS011;64406;50.024;14.492;2023-05-16T13:08:24;15.77;;;10.73;;
75787;SDS011;64406;50.024;14.492;2023-05-16T13:10:50;13.93;;;10.20;;
75787;SDS011;64406;50.024;14.492;2023-05-16T13:13:16;14.43;;;10.00;;
75787;SDS011;64406;50.024;14.492;2023-05-16T13:15:46;15.10;;;9.85;;
75787;SDS011;64406;50.024;14.492;2023-05-16T13:18:12;13.55;;;9.57;;
75787;SDS011;64406;50.024;14.492;2023-05-16T13:20:38;15.07;;;9.77;;
75787;SDS011;64406;50.024;14.492;2023-05-16T13:23:04;11.45;;;9.15;;
75787;SDS011;64406;50.024;14.492;2023-05-16T13:25:30;12.50;;;8.50;;
75787;SDS011;64406;50.024;14.492;2023-05-16T13:27:57;15.98;;;9.13;;
75787;SDS011;64406;50.024;14.492;2023-05-16T13:30:23;12.68;;;9.05;;
75787;SDS011;64406;50.024;14.492;2023-05-16T13:32:48;12.15;;;9.25;;
75787;SDS011;64406;50.024;14.492;2023-05-16T13:35:16;12.85;;;8.30;;
75787;SDS011;64406;50.024;14.492;2023-05-16T13:37:43;13.25;;;9.50;;
75787;SDS011;64406;50.024;14.492;2023-05-16T13:40:08;11.25;;;9.07;;
75787;SDS011;64406;50.024;14.492;2023-05-16T13:42:38;13.18;;;9.35;;
75787;SDS011;64406;50.024;14.492;2023-05-16T13:45:04;16.50;;;9.90;;
75787;SDS011;64406;50.024;14.492;2023-05-16T13:47:31;15.15;;;10.00;;
75787;SDS011;64406;50.024;14.492;2023-05-16T13:49:57;14.00;;;10.25;;
75787;SDS011;64406;50.024;14.492;2023-05-16T13:52:33;17.80;;;10.82;;
75787;SDS011;64406;50.024;14.492;2023-05-16T13:54:59;14.73;;;9.73;;
75787;SDS011;64406;50.024;14.492;2023-05-16T13:57:25;13.57;;;10.05;;
75787;SDS011;64406;50.024;14.492;2023-05-16T13:59:51;14.90;;;10.43;;
75787;SDS011;64406;50.024;14.492;2023-05-16T14:02:18;14.15;;;9.50;;
75787;SDS011;64406;50.024;14.492;2023-05-16T14:04:43;12.13;;;8.95;;
75787;SDS011;64406;50.024;14.492;2023-05-16T14:07:09;11.27;;;8.98;;
75787;SDS011;64406;50.024;14.492;2023-05-16T14:09:36;15.82;;;10.43;;
75787;SDS011;64406;50.024;14.492;2023-05-16T14:12:04;13.65;;;9.77;;
75787;SDS011;64406;50.024;14.492;2023-05-16T14:14:32;12.90;;;9.13;;
75787;SDS011;64406;50.024;14.492;2023-05-16T14:17:01;12.43;;;9.50;;
75787;SDS011;64406;50.024;14.492;2023-05-16T14:19:28;13.80;;;9.40;;
75787;SDS011;64406;50.024;14.492;2023-05-16T14:21:54;15.20;;;8.52;;
75787;SDS011;64406;50.024;14.492;2023-05-16T14:24:20;11.77;;;9.07;;
75787;SDS011;64406;50.024;14.492;2023-05-16T14:26:46;12.48;;;9.13;;
75787;SDS011;64406;50.024;14.492;2023-05-16T14:29:12;12.07;;;9.15;;
75787;SDS011;64406;50.024;14.492;2023-05-16T14:31:38;13.07;;;8.00;;
75787;SDS011;64406;50.024;14.492;2023-05-16T14:34:04;12.30;;;8.43;;
75787;SDS011;64406;50.024;14.492;2023-05-16T14:36:29;11.50;;;9.15;;
75787;SDS011;64406;50.024;14.492;2023-05-16T14:38:56;15.38;;;7.82;;
75787;SDS011;64406;50.024;14.492;2023-05-16T14:41:22;13.23;;;8.38;;
75787;SDS011;64406;50.024;14.492;2023-05-16T14:43:48;13.60;;;7.85;;
75787;SDS011;64406;50.024;14.492;2023-05-16T14:46:13;11.68;;;7.80;;
75787;SDS011;64406;50.024;14.492;2023-05-16T14:48:39;10.52;;;7.45;;
75787;SDS011;64406;50.024;14.492;2023-05-16T14:51:05;10.95;;;6.80;;
75787;SDS011;64406;50.024;14.492;2023-05-16T14:53:31;10.52;;;7.47;;